Terminal Aerodrome Forecast
Issued by NWS

Home | Current Version | Previous Version | Text Only | Print | Product List | Glossary On
Versions: 1 2 3 4 5 6 7 8 9 10 11 12 13 14
571
FTUS45 KTFX 081720
TAFHLN
TAF
KHLN 081720Z 0818/0918 26008KT P6SM FEW060 BKN150
     FM090000 VRB04KT P6SM SCT200=

USA.gov is the U.S. government's official web portal to all federal, state and local government web resources and services.